| time (UTC) | temp F | wind direction | speed knots | gust knots | rain 1hr in | rain 24hr in | rain mn in | humidity % | barometer mb |
| 20260507105359 | 48 | 337 | 5.2 | 6.1 | 0.00 | 0.00 | 0.00 | 80 | 1005.7 |
| 20260507103859 | 48 | 337 | 6.1 | 7.0 | 0.00 | 0.00 | 0.00 | 79 | 1005.6 |
| 20260507102359 | 49 | 337 | 6.1 | 6.1 | 0.00 | 0.00 | 0.00 | 80 | 1005.4 |
| 20260507100859 | 48 | 22 | 5.2 | 5.2 | 0.00 | 0.00 | 0.00 | 82 | 1005.2 |
| 20260507095359 | 47 | 315 | 5.2 | 10.4 | 0.00 | 0.00 | 0.00 | 83 | 1005.2 |
| 20260507093859 | 46 | 0 | 3.5 | 5.2 | 0.00 | 0.00 | 0.00 | 83 | 1005.1 |
| 20260507092359 | 47 | 337 | 7.0 | 7.0 | 0.00 | 0.00 | 0.00 | 83 | 1005.1 |
| 20260507090859 | 46 | 337 | 6.1 | 6.1 | 0.00 | 0.00 | 0.00 | 84 | 1004.8 |
| 20260507085400 | 46 | 337 | 4.3 | 6.1 | 0.00 | 0.00 | 0.00 | 83 | 1004.5 |
| 20260507083859 | 47 | 337 | 6.1 | 6.1 | 0.00 | 0.00 | 0.00 | 83 | 1004.2 |
| 20260507082359 | 47 | 337 | 5.2 | 7.0 | 0.00 | 0.00 | 0.00 | 83 | 1004.0 |
| 20260507080859 | 46 | 337 | 4.3 | 7.0 | 0.00 | 0.00 | 0.00 | 84 | 1003.9 |
| 20260507075359 | 46 | 337 | 6.1 | 6.1 | 0.00 | 0.00 | 0.00 | 84 | 1003.9 |
| 20260507073859 | 46 | 22 | 2.6 | 2.6 | 0.00 | 0.00 | 0.00 | 85 | 1003.7 |
| 20260507072359 | 46 | 315 | 4.3 | 7.0 | 0.00 | 0.00 | 0.00 | 85 | 1003.6 |
| 20260507070859 | 46 | 337 | 7.0 | 7.0 | 0.00 | 0.00 | 0.00 | 85 | 1003.5 |
| 20260507065359 | 46 | 337 | 5.2 | 5.2 | 0.00 | 0.00 | 0.00 | 86 | 1003.3 |
| 20260507063859 | 46 | 0 | 1.7 | 5.2 | 0.00 | 0.00 | 0.00 | 85 | 1003.1 |
| 20260507062359 | 46 | 337 | 3.5 | 5.2 | 0.00 | 0.00 | 0.00 | 86 | 1002.8 |
| 20260507060859 | 46 | 337 | 5.2 | 6.1 | 0.00 | 0.00 | 0.00 | 86 | 1002.7 |
| 20260507055359 | 46 | 315 | 3.5 | 5.2 | 0.00 | 0.00 | 0.00 | 86 | 1002.6 |
| 20260507053900 | 45 | 315 | 4.3 | 4.3 | 0.00 | 0.00 | 0.00 | 87 | 1002.6 |
| 20260507052359 | 45 | 0 | 5.2 | 5.2 | 0.00 | 0.00 | 0.00 | 87 | 1002.3 |
| 20260507050900 | 45 | 0 | 2.6 | 5.2 | 0.00 | 0.00 | 0.00 | 88 | 1002.3 |
| 20260507045400 | 45 | 337 | 5.2 | 6.1 | 0.00 | 0.00 | 0.00 | 89 | 1002.2 |
| 20260507043900 | 44 | 337 | 1.7 | 2.6 | 0.00 | 0.00 | 0.00 | 89 | 1002.2 |
| 20260507042400 | 44 | 337 | 2.6 | 4.3 | 0.00 | 0.00 | 0.00 | 89 | 1001.9 |
| 20260507040900 | 44 | 337 | 1.7 | 5.2 | 0.00 | 0.00 | 0.00 | 89 | 1001.6 |
| 20260507035400 | 44 | 337 | 5.2 | 7.0 | 0.00 | 0.02 | 0.00 | 89 | 1001.4 |
| 20260507033900 | 44 | 0 | 5.2 | 5.2 | 0.00 | 0.02 | 0.00 | 88 | 1001.2 |
| 20260507032400 | 44 | 0 | 6.1 | 6.1 | 0.00 | 0.02 | 0.00 | 88 | 1001.1 |
| 20260507030900 | 44 | 0 | 3.5 | 5.2 | 0.00 | 0.02 | 0.00 | 88 | 1000.9 |
| 20260507025400 | 44 | 0 | 3.5 | 6.1 | 0.00 | 0.02 | 0.00 | 88 | 1000.9 |
| 20260507023900 | 44 | 0 | 6.1 | 6.1 | 0.00 | 0.02 | 0.00 | 88 | 1000.8 |
| 20260507022400 | 44 | 337 | 6.1 | 6.1 | 0.00 | 0.02 | 0.00 | 88 | 1000.8 |
| 20260507020900 | 44 | 337 | 4.3 | 6.1 | 0.00 | 0.02 | 0.00 | 88 | 1000.6 |
| 20260507015400 | 44 | 337 | 1.7 | 1.7 | 0.00 | 0.02 | 0.00 | 87 | 1001.1 |
| 20260507013900 | 44 | 315 | 0.0 | 0.9 | 0.00 | 0.02 | 0.00 | 87 | 1001.1 |
| 20260507012400 | 44 | 0 | 0.0 | 0.9 | 0.00 | 0.02 | 0.00 | 86 | 1001.0 |
| 20260507010900 | 44 | 292 | 0.9 | 0.9 | 0.00 | 0.02 | 0.00 | 86 | 1001.1 |
| 20260507005400 | 45 | 270 | 0.0 | 0.9 | 0.00 | 0.02 | 0.00 | 86 | 1001.0 |
| 20260507003900 | 45 | 270 | 0.0 | 0.0 | 0.00 | 0.02 | 0.00 | 85 | 1001.0 |
| 20260507002400 | 45 | 337 | 0.0 | 0.0 | 0.00 | 0.02 | 0.00 | 85 | 1001.1 |
| 20260507000900 | 44 | 0 | 0.9 | 2.6 | 0.00 | 0.02 | 0.00 | 86 | 1000.7 |
| 20260506235400 | 44 | 337 | 2.6 | 2.6 | 0.00 | 0.02 | 0.00 | 86 | 1000.3 |
| 20260506233900 | 45 | 0 | 3.5 | 3.5 | 0.00 | 0.02 | 0.00 | 86 | 1000.1 |
| 20260506232400 | 45 | 0 | 4.3 | 4.3 | 0.00 | 0.02 | 0.00 | 86 | 1000.2 |
| 20260506230900 | 45 | 0 | 1.7 | 1.7 | 0.00 | 0.02 | 0.00 | 86 | 1000.1 |
| 20260506225400 | 45 | 0 | 0.9 | 2.6 | 0.00 | 0.02 | 0.00 | 87 | 1000.2 |
| 20260506223900 | 44 | 315 | 3.5 | 3.5 | 0.00 | 0.02 | 0.00 | 87 | 1000.1 |
| 20260506222400 | 44 | 337 | 3.5 | 3.5 | 0.00 | 0.02 | 0.00 | 86 | 999.7 |
| 20260506220900 | 44 | 0 | 0.9 | 1.7 | 0.00 | 0.02 | 0.00 | 86 | 999.6 |
| 20260506215400 | 44 | 337 | 1.7 | 2.6 | 0.00 | 0.02 | 0.00 | 86 | 999.8 |
| 20260506213900 | 44 | 337 | 3.5 | 4.3 | 0.00 | 0.02 | 0.00 | 85 | 999.7 |
| 20260506212400 | 45 | 337 | 1.7 | 1.7 | 0.00 | 0.02 | 0.00 | 85 | 999.7 |
| 20260506210900 | 45 | 0 | 0.0 | 4.3 | 0.00 | 0.02 | 0.00 | 85 | 999.7 |
| 20260506205400 | 45 | 337 | 0.0 | 0.9 | 0.00 | 0.02 | 0.00 | 84 | 999.4 |
| 20260506203900 | 45 | 22 | 0.9 | 2.6 | 0.00 | 0.02 | 0.00 | 84 | 999.2 |
| 20260506202400 | 46 | 0 | 3.5 | 3.5 | 0.00 | 0.02 | 0.00 | 84 | 999.2 |
| 20260506200900 | 46 | 0 | 2.6 | 2.6 | 0.00 | 0.02 | 0.00 | 84 | 999.0 |
| 20260506195400 | 46 | 337 | 2.6 | 2.6 | 0.00 | 0.02 | 0.00 | 84 | 998.8 |
| 20260506193900 | 46 | 337 | 0.9 | 2.6 | 0.00 | 0.02 | 0.00 | 83 | 998.7 |
| 20260506192401 | 47 | 22 | 0.0 | 0.0 | 0.00 | 0.02 | 0.00 | 82 | 998.7 |
| 20260506190901 | 48 | 0 | 1.7 | 1.7 | 0.00 | 0.02 | 0.00 | 81 | 998.6 |
| 20260506185401 | 48 | 0 | 0.9 | 1.7 | 0.00 | 0.04 | 0.00 | 79 | 998.6 |
| 20260506183901 | 49 | 22 | 0.0 | 0.0 | 0.00 | 0.04 | 0.00 | 77 | 998.4 |
| 20260506182401 | 51 | 0 | 1.7 | 1.7 | 0.00 | 0.04 | 0.00 | 75 | 998.2 |
| 20260506180901 | 52 | 45 | 0.0 | 1.7 | 0.00 | 0.04 | 0.00 | 73 | 998.0 |
| 20260506175401 | 54 | 45 | 0.0 | 0.9 | 0.00 | 0.04 | 0.00 | 73 | 998.1 |
| 20260506173901 | 54 | 45 | 0.0 | 0.0 | 0.00 | 0.04 | 0.00 | 72 | 997.9 |
| 20260506172401 | 55 | 67 | 0.0 | 0.0 | 0.00 | 0.04 | 0.00 | 72 | 997.9 |
| 20260506170901 | 55 | 45 | 0.9 | 0.9 | 0.00 | 0.04 | 0.00 | 71 | 997.8 |
| 20260506165401 | 56 | 67 | 0.0 | 0.0 | 0.00 | 0.04 | 0.00 | 70 | 997.9 |
| 20260506163901 | 57 | 45 | 0.0 | 0.0 | 0.00 | 0.04 | 0.00 | 69 | 997.8 |
| 20260506162401 | 58 | 45 | 3.5 | 3.5 | 0.00 | 0.04 | 0.00 | 71 | 997.9 |
| 20260506160901 | 58 | 45 | 2.6 | 2.6 | 0.00 | 0.04 | 0.00 | 70 | 998.0 |
| 20260506155401 | 58 | 45 | 0.9 | 1.7 | 0.00 | 0.06 | 0.00 | 70 | 998.2 |
| 20260506153901 | 58 | 45 | 0.9 | 0.9 | 0.00 | 0.06 | 0.00 | 70 | 998.2 |
| 20260506152401 | 59 | 45 | 0.9 | 1.7 | 0.00 | 0.06 | 0.00 | 70 | 998.3 |
| 20260506150901 | 59 | 0 | 0.9 | 4.3 | 0.00 | 0.06 | 0.00 | 70 | 998.4 |
| 20260506145401 | 58 | 337 | 1.7 | 1.7 | 0.00 | 0.08 | 0.00 | 70 | 998.6 |
| 20260506143901 | 59 | 0 | 5.2 | 5.2 | 0.00 | 0.08 | 0.00 | 69 | 998.6 |
| 20260506142401 | 61 | 337 | 2.6 | 2.6 | 0.00 | 0.08 | 0.00 | 69 | 998.3 |
| 20260506140901 | 60 | 337 | 4.3 | 4.3 | 0.00 | 0.08 | 0.00 | 69 | 998.4 |
| 20260506135401 | 63 | 22 | 0.0 | 3.5 | 0.00 | 0.08 | 0.00 | 65 | 998.1 |
| 20260506133901 | 63 | 0 | 3.5 | 3.5 | 0.00 | 0.08 | 0.00 | 66 | 997.8 |
| 20260506132401 | 65 | 45 | 1.7 | 2.6 | 0.00 | 0.08 | 0.00 | 63 | 997.7 |
| 20260506130901 | 69 | 22 | 5.2 | 5.2 | 0.00 | 0.08 | 0.00 | 61 | 997.7 |
| 20260506125401 | 64 | 45 | 0.0 | 2.6 | 0.00 | 0.08 | 0.00 | 67 | 997.7 |
| 20260506123901 | 64 | 45 | 6.1 | 6.1 | 0.00 | 0.08 | 0.00 | 68 | 997.5 |
| 20260506122401 | 62 | 45 | 0.9 | 5.2 | 0.00 | 0.08 | 0.00 | 71 | 997.5 |
| 20260506120901 | 61 | 67 | 3.5 | 4.3 | 0.00 | 0.08 | 0.00 | 71 | 997.5 |
| 20260506115401 | 61 | 22 | 0.0 | 0.0 | 0.00 | 0.08 | 0.00 | 71 | 997.6 |
| 20260506113901 | 61 | 45 | 3.5 | 3.5 | 0.00 | 0.08 | 0.00 | 70 | 997.6 |
| 20260506112402 | 62 | 45 | 2.6 | 2.6 | 0.00 | 0.08 | 0.00 | 68 | 997.5 |
| 20260506110901 | 64 | 157 | 0.0 | 0.0 | 0.00 | 0.08 | 0.00 | 64 | 997.5 |